createdAt,value
2023-04-18T00:01:09.919Z,28.10
2023-04-18T00:06:31.434Z,22.43
2023-04-18T00:11:53.521Z,21.87
2023-04-18T00:17:16.209Z,19.83
2023-04-18T00:22:42.904Z,19.10
2023-04-18T00:28:04.825Z,18.70
2023-04-18T00:33:27.813Z,19.37
2023-04-18T00:38:48.982Z,18.80
2023-04-18T00:44:10.285Z,18.70
2023-04-18T00:49:32.382Z,16.27
2023-04-18T00:54:55.666Z,15.83
2023-04-18T01:00:17.159Z,17.70
2023-04-18T01:05:39.230Z,15.67
2023-04-18T01:11:00.662Z,19.40
2023-04-18T01:16:22.416Z,17.13
2023-04-18T01:21:45.559Z,15.47
2023-04-18T01:27:13.647Z,17.97
2023-04-18T01:32:35.043Z,14.30
2023-04-18T01:37:57.466Z,16.43
2023-04-18T01:43:18.724Z,14.50
2023-04-18T01:48:40.330Z,17.50
2023-04-18T01:54:01.995Z,16.67
2023-04-18T01:59:23.428Z,16.70
2023-04-18T02:04:44.883Z,23.53
2023-04-18T02:10:07.073Z,32.13
2023-04-18T02:15:28.521Z,28.47
2023-04-18T02:20:52.118Z,27.47
2023-04-18T02:26:13.804Z,56.57
2023-04-18T02:31:37.139Z,31.90
2023-04-18T02:36:58.943Z,51.93
2023-04-18T02:42:20.527Z,78.70
2023-04-18T02:47:53.713Z,67.83
2023-04-18T02:53:17.326Z,76.03
2023-04-18T02:58:49.017Z,57.87
2023-04-18T03:04:39.463Z,84.00
2023-04-18T03:10:03.077Z,104.10
2023-04-18T03:15:31.611Z,112.77
2023-04-18T03:20:53.672Z,110.83
2023-04-18T03:26:15.705Z,106.93
2023-04-18T03:31:41.593Z,105.77
2023-04-18T03:37:03.362Z,113.50
2023-04-18T03:42:32.986Z,80.50
2023-04-18T03:47:54.526Z,70.53
2023-04-18T03:53:17.285Z,62.83
2023-04-18T03:58:38.842Z,63.50
2023-04-18T04:04:01.899Z,65.90
2023-04-18T04:09:23.996Z,65.23
2023-04-18T04:14:45.697Z,71.73
2023-04-18T04:20:08.163Z,67.93
2023-04-18T04:25:30.459Z,63.93
2023-04-18T04:30:56.374Z,62.77
2023-04-18T04:36:19.131Z,65.07
2023-04-18T04:41:42.819Z,65.13
2023-04-18T04:47:05.111Z,61.53
2023-04-18T04:52:32.482Z,58.87
2023-04-18T04:57:55.067Z,69.70
2023-04-18T05:03:39.587Z,60.27
2023-04-18T05:09:01.723Z,75.63
2023-04-18T05:14:23.838Z,59.53
2023-04-18T05:19:45.030Z,62.63
2023-04-18T05:25:06.831Z,59.53
2023-04-18T05:30:28.456Z,59.87
2023-04-18T05:35:50.175Z,58.23
2023-04-18T05:41:11.582Z,57.33
2023-04-18T05:46:33.227Z,50.97
2023-04-18T05:51:54.733Z,56.23
2023-04-18T05:57:16.511Z,55.57
2023-04-18T06:02:38.265Z,61.83
2023-04-18T06:07:59.788Z,57.57
2023-04-18T06:13:21.382Z,62.80
2023-04-18T06:18:42.752Z,59.17
2023-04-18T06:24:04.305Z,94.00
2023-04-18T06:29:30.518Z,65.47
2023-04-18T06:34:53.214Z,65.30
2023-04-18T06:40:14.655Z,75.17
2023-04-18T06:45:36.833Z,69.07
2023-04-18T06:50:57.993Z,63.07
2023-04-18T06:56:20.696Z,55.67
2023-04-18T07:01:44.797Z,47.33
2023-04-18T07:07:06.284Z,34.87
2023-04-18T07:12:28.025Z,32.10
2023-04-18T07:17:49.521Z,30.13
2023-04-18T07:23:10.708Z,31.93
2023-04-18T07:28:33.503Z,34.07
2023-04-18T07:33:55.366Z,34.13
2023-04-18T07:39:16.850Z,38.73
2023-04-18T07:44:38.191Z,33.50
2023-04-18T07:49:59.733Z,37.33
2023-04-18T07:55:21.327Z,33.90
2023-04-18T08:00:44.952Z,32.33
2023-04-18T08:06:07.107Z,36.50
2023-04-18T08:11:28.412Z,38.57
2023-04-18T08:16:50.003Z,46.47
2023-04-18T08:22:12.019Z,51.27
2023-04-18T08:27:33.474Z,58.53
2023-04-18T08:32:54.818Z,62.10
2023-04-18T08:38:20.354Z,63.93
2023-04-18T08:43:41.739Z,63.53
2023-04-18T08:49:05.316Z,60.70
2023-04-18T08:54:30.536Z,56.00
2023-04-18T08:59:53.666Z,61.53
2023-04-18T09:05:19.152Z,58.37
2023-04-18T09:10:40.801Z,49.10
2023-04-18T09:16:02.110Z,56.13
2023-04-18T09:21:23.738Z,54.93
2023-04-18T09:26:45.079Z,51.37
2023-04-18T09:32:07.256Z,57.60
2023-04-18T09:37:29.749Z,59.20
2023-04-18T09:42:54.775Z,55.90
2023-04-18T09:48:16.297Z,59.73
2023-04-18T09:53:44.748Z,58.40
2023-04-18T09:59:11.390Z,59.53
2023-04-18T10:04:34.300Z,59.00
2023-04-18T10:09:55.562Z,65.20
2023-04-18T10:15:18.305Z,63.10
2023-04-18T10:20:42.217Z,65.13
2023-04-18T10:26:10.271Z,68.47
2023-04-18T10:31:39.718Z,66.90
2023-04-18T10:37:05.946Z,69.03
2023-04-18T10:42:52.103Z,67.20
2023-04-18T10:48:29.567Z,68.50
2023-04-18T10:53:59.795Z,67.10
2023-04-18T10:59:26.971Z,66.80
2023-04-18T11:04:53.144Z,68.60
2023-04-18T11:10:18.932Z,62.20
2023-04-18T11:15:40.916Z,65.27
2023-04-18T11:21:03.963Z,67.07
2023-04-18T11:26:26.564Z,59.50
2023-04-18T11:31:53.305Z,62.03
2023-04-18T11:37:16.478Z,62.90
2023-04-18T11:42:40.306Z,63.77
2023-04-18T11:48:02.376Z,61.27
2023-04-18T11:53:37.513Z,62.37
2023-04-18T11:58:59.191Z,54.27
2023-04-18T12:04:21.080Z,58.07
2023-04-18T12:09:42.777Z,60.47
2023-04-18T12:15:15.439Z,56.03
2023-04-18T12:20:39.751Z,57.87
2023-04-18T12:26:06.308Z,55.70
2023-04-18T12:31:28.961Z,51.40
2023-04-18T12:36:50.842Z,52.33
2023-04-18T12:42:12.120Z,49.73
2023-04-18T12:47:35.452Z,52.73
2023-04-18T12:52:59.379Z,48.60
2023-04-18T12:58:20.971Z,54.93
2023-04-18T13:03:42.610Z,54.67
2023-04-18T13:09:06.177Z,56.50
2023-04-18T13:14:27.810Z,55.43
2023-04-18T13:19:49.404Z,58.90
2023-04-18T13:25:11.757Z,58.50
2023-04-18T13:30:35.834Z,61.80
2023-04-18T13:35:57.144Z,66.00
2023-04-18T13:41:18.617Z,64.10
2023-04-18T13:46:40.175Z,67.60
2023-04-18T13:52:02.437Z,64.57
2023-04-18T13:57:23.986Z,67.10
2023-04-18T14:02:45.495Z,66.33
2023-04-18T14:08:07.072Z,63.03
2023-04-18T14:13:28.403Z,67.17
2023-04-18T14:18:49.878Z,70.07
2023-04-18T14:24:12.084Z,61.80
2023-04-18T14:29:33.585Z,61.20
2023-04-18T14:34:55.023Z,57.80
2023-04-18T14:40:16.873Z,58.30
2023-04-18T14:45:38.592Z,55.70
2023-04-18T14:51:02.635Z,56.17
2023-04-18T14:56:24.396Z,51.77
2023-04-18T15:01:46.044Z,47.17
2023-04-18T15:07:07.912Z,43.43
2023-04-18T15:12:30.502Z,44.27
2023-04-18T15:17:52.105Z,38.40
2023-04-18T15:23:14.418Z,39.40
2023-04-18T15:28:35.713Z,40.60
2023-04-18T15:33:57.358Z,36.00
2023-04-18T15:39:22.093Z,42.13
2023-04-18T15:44:43.498Z,41.53
2023-04-18T15:50:06.020Z,43.83
2023-04-18T15:55:27.288Z,40.13
2023-04-18T16:00:52.339Z,48.57
2023-04-18T16:06:15.767Z,42.43
2023-04-18T16:11:37.310Z,45.43
2023-04-18T16:17:00.052Z,46.60
2023-04-18T16:22:21.748Z,44.83
2023-04-18T16:27:43.293Z,44.53
2023-04-18T16:33:05.094Z,46.37
2023-04-18T16:38:30.118Z,47.57
2023-04-18T16:43:51.772Z,50.73
2023-04-18T16:49:13.102Z,49.90
2023-04-18T16:54:34.947Z,47.57
2023-04-18T16:59:58.398Z,46.97
2023-04-18T17:05:19.755Z,47.63
2023-04-18T17:10:41.448Z,47.27
2023-04-18T17:16:03.525Z,50.13
2023-04-18T17:21:25.293Z,47.93
2023-04-18T17:26:46.735Z,49.10
2023-04-18T17:32:08.004Z,46.80
2023-04-18T17:37:29.417Z,54.27
2023-04-18T17:42:51.244Z,54.83
2023-04-18T17:48:12.902Z,53.70
2023-04-18T17:53:34.644Z,51.80
2023-04-18T17:58:56.764Z,56.53
2023-04-18T18:04:19.867Z,56.83
2023-04-18T18:09:45.606Z,60.17
2023-04-18T18:15:08.380Z,59.77
2023-04-18T18:20:30.984Z,61.27
2023-04-18T18:25:52.452Z,61.50
2023-04-18T18:31:13.952Z,62.60
2023-04-18T18:36:35.215Z,61.53
2023-04-18T18:41:58.376Z,58.10
2023-04-18T18:47:20.081Z,60.40
2023-04-18T18:52:43.259Z,57.83
2023-04-18T18:58:07.875Z,56.97
2023-04-18T19:03:29.455Z,54.63
2023-04-18T19:08:51.369Z,55.17
2023-04-18T19:14:12.670Z,59.77
2023-04-18T19:19:34.127Z,53.50
2023-04-18T19:24:55.828Z,53.77
2023-04-18T19:30:17.267Z,59.13
2023-04-18T19:35:38.999Z,59.43
2023-04-18T19:41:00.524Z,56.40
2023-04-18T19:46:22.231Z,57.30
2023-04-18T19:51:43.689Z,55.50
2023-04-18T19:57:06.451Z,53.57
2023-04-18T20:02:28.197Z,59.17
2023-04-18T20:07:50.326Z,54.37
2023-04-18T20:13:16.107Z,58.93
2023-04-18T20:18:39.615Z,57.20
2023-04-18T20:24:00.843Z,51.87
2023-04-18T20:29:22.543Z,55.10
2023-04-18T20:34:45.848Z,59.47
2023-04-18T20:40:11.112Z,54.57
2023-04-18T20:45:34.795Z,60.47
2023-04-18T20:50:56.508Z,55.67
2023-04-18T20:56:17.722Z,54.23
2023-04-18T21:01:39.386Z,53.23
2023-04-18T21:07:00.867Z,56.20
2023-04-18T21:12:22.391Z,63.73
2023-04-18T21:17:43.960Z,54.70
2023-04-18T21:23:05.487Z,54.23
2023-04-18T21:28:27.046Z,53.10
2023-04-18T21:33:51.439Z,51.13
2023-04-18T21:39:12.887Z,57.47
2023-04-18T21:44:34.232Z,56.10
2023-04-18T21:49:56.875Z,58.40
2023-04-18T21:55:18.600Z,54.97
2023-04-18T22:00:40.050Z,46.53
2023-04-18T22:06:02.190Z,53.80
2023-04-18T22:11:23.799Z,49.87
2023-04-18T22:16:45.586Z,48.60
2023-04-18T22:22:06.855Z,50.90
2023-04-18T22:27:28.165Z,56.80
2023-04-18T22:32:49.880Z,51.33
2023-04-18T22:38:11.447Z,51.87
2023-04-18T22:43:33.840Z,52.63
2023-04-18T22:48:55.293Z,53.93
2023-04-18T22:54:16.766Z,52.63
2023-04-18T22:59:38.210Z,45.77
2023-04-18T23:05:02.508Z,49.70
2023-04-18T23:10:24.235Z,56.30
2023-04-18T23:15:45.512Z,46.23
2023-04-18T23:21:06.762Z,50.17
2023-04-18T23:26:28.228Z,48.93
2023-04-18T23:31:49.986Z,43.37
2023-04-18T23:37:11.038Z,46.10
2023-04-18T23:42:34.851Z,48.03
2023-04-18T23:47:56.587Z,51.33
2023-04-18T23:53:23.865Z,49.53
2023-04-18T23:58:45.763Z,49.60
